KPWD/PWD METAR and TAF weather

Enter ICAO airport designator
Station Type Date Time Source
KPWD METAR 2022/12/08 12:55 UTC NOAA

KPWD 081255Z AUTO 14008KT 10SM CLR M19/M21 A3003 RMK AO2


Station Type Date Time Source
KPWD Decoded METAR 2022/12/08 12:55 UTC NOAA

Station name not available
Dec 08, 2022 - 07:55 AM EST / 2022.12.08 1255 UTC
Wind: from the SE (140 degrees) at 9 MPH (8 KT):0
Visibility: 10 mile(s):0
Sky conditions: clear
Temperature: -2 F (-19 C)
Windchill: -18 F (-28 C):2
Dew Point: -5 F (-21 C)
Relative Humidity: 84%
Pressure (altimeter): 30.03 in. Hg (1016 hPa)
ob: KPWD 081255Z AUTO 14008KT 10SM CLR M19/M21 A3003 RMK AO2
cycle: 13

Station Type Date Time Source
KPWD TAF UTC NOAA

Error!

Example: see airport list